Time;durP1;ratioP1;P1;durP2;ratioP2;P2;SDS_P1;SDS_P2;PMS_P1;PMS_P2;Temp;Humidity;BMP_temperature;BMP_pressure;BME280_temperature;BME280_humidity;BME280_pressure;Samples;Min_cycle;Max_cycle;Signal;HPM_P1;HPM_P2
2022/03/08 00:02:00;;;;;;;3.03;2.70;;;17.00;56.80;;;;;;5202724;28;20202;-66
2022/03/08 00:04:52;;;;;;;3.00;2.70;;;17.00;56.80;;;;;;5186541;28;20195;-65
2022/03/08 00:07:46;;;;;;;2.97;2.60;;;17.00;56.80;;;;;;5187080;28;20197;-66
2022/03/08 00:10:39;;;;;;;3.53;2.70;;;17.00;56.90;;;;;;5185716;28;20195;-66
2022/03/08 00:13:31;;;;;;;3.20;2.87;;;17.00;56.80;;;;;;5185960;28;20938;-65
2022/03/08 00:16:23;;;;;;;3.47;2.87;;;17.00;56.80;;;;;;5181105;28;20333;-65
2022/03/08 00:19:16;;;;;;;3.40;2.80;;;17.00;56.80;;;;;;5187035;28;20194;-65
2022/03/08 00:22:08;;;;;;;2.53;2.33;;;17.00;56.80;;;;;;5165728;28;20187;-65
2022/03/08 00:25:01;;;;;;;3.33;2.70;;;17.00;56.80;;;;;;5178571;28;20277;-65
2022/03/08 00:27:53;;;;;;;3.00;2.53;;;17.00;56.70;;;;;;5185208;28;20688;-65
2022/03/08 00:30:45;;;;;;;2.90;2.60;;;17.00;56.70;;;;;;5185171;28;20200;-65
2022/03/08 00:33:38;;;;;;;3.63;2.60;;;17.00;56.70;;;;;;5185077;28;20218;-65
2022/03/08 00:36:31;;;;;;;3.17;2.63;;;17.00;56.80;;;;;;5185080;28;20195;-66
2022/03/08 00:39:24;;;;;;;2.87;2.37;;;17.00;56.80;;;;;;5187382;28;20194;-65
2022/03/08 00:42:16;;;;;;;2.80;2.60;;;17.00;56.80;;;;;;5186625;28;20195;-65
2022/03/08 00:45:10;;;;;;;3.40;2.47;;;17.00;56.70;;;;;;5187173;28;20198;-65
2022/03/08 00:48:02;;;;;;;2.70;2.37;;;17.00;56.70;;;;;;5197306;28;20564;-65
2022/03/08 00:50:54;;;;;;;2.80;2.50;;;17.00;56.70;;;;;;5191186;28;20198;-65
2022/03/08 00:53:48;;;;;;;2.57;2.37;;;17.00;56.70;;;;;;5185717;28;20295;-66
2022/03/08 00:56:40;;;;;;;3.10;2.37;;;17.00;56.70;;;;;;5180374;28;20195;-65
2022/03/08 00:59:33;;;;;;;2.67;2.37;;;17.00;56.60;;;;;;5169800;28;20194;-66
2022/03/08 01:02:25;;;;;;;2.73;2.40;;;17.00;56.60;;;;;;5184359;28;20277;-65
2022/03/08 01:05:17;;;;;;;2.77;2.30;;;17.00;56.60;;;;;;5185104;28;20186;-65
2022/03/08 01:08:09;;;;;;;2.57;2.37;;;17.00;57.20;;;;;;5184152;28;20198;-66
2022/03/08 01:11:03;;;;;;;2.70;2.40;;;17.00;56.60;;;;;;5175137;28;20245;-64
2022/03/08 01:13:55;;;;;;;2.47;2.00;;;17.00;56.70;;;;;;5180927;28;20690;-65
2022/03/08 01:16:47;;;;;;;2.20;2.00;;;17.00;56.60;;;;;;5184540;28;20199;-66
2022/03/08 01:19:39;;;;;;;2.50;2.07;;;17.00;56.60;;;;;;5184202;28;20592;-65
2022/03/08 01:22:31;;;;;;;1.90;1.70;;;17.00;56.60;;;;;;5175449;28;20199;-65
2022/03/08 01:25:24;;;;;;;2.30;2.10;;;17.00;56.60;;;;;;5182585;28;20204;-65
2022/03/08 01:28:18;;;;;;;2.33;2.10;;;17.00;56.50;;;;;;5183323;28;20195;-65
2022/03/08 01:31:10;;;;;;;3.07;2.13;;;17.00;56.50;;;;;;5183331;28;20206;-66
2022/03/08 01:34:03;;;;;;;2.40;1.93;;;17.00;56.50;;;;;;5180908;28;20585;-65
2022/03/08 01:36:55;;;;;;;1.77;1.67;;;17.00;56.60;;;;;;5183637;28;20345;-65
2022/03/08 01:39:47;;;;;;;2.13;1.93;;;17.00;56.60;;;;;;5183231;28;20558;-65
2022/03/08 01:42:41;;;;;;;3.10;2.20;;;17.00;56.60;;;;;;5173882;28;20228;-65
2022/03/08 01:45:35;;;;;;;2.80;2.10;;;17.00;56.50;;;;;;5174568;28;20686;-65
2022/03/08 01:48:27;;;;;;;2.50;2.10;;;17.00;56.60;;;;;;5176330;28;20196;-65
2022/03/08 01:51:20;;;;;;;2.30;1.80;;;17.00;57.10;;;;;;5181208;28;20275;-64
2022/03/08 01:54:12;;;;;;;2.67;1.90;;;17.00;56.50;;;;;;5182620;28;20222;-65
2022/03/08 01:57:05;;;;;;;2.00;1.80;;;17.00;56.40;;;;;;5182020;28;20195;-64
2022/03/08 01:59:57;;;;;;;2.13;1.70;;;17.00;56.50;;;;;;5183392;28;20204;-65
2022/03/08 02:02:51;;;;;;;2.10;1.87;;;17.00;56.50;;;;;;5174388;28;20218;-65
2022/03/08 02:05:43;;;;;;;2.03;1.87;;;16.90;56.40;;;;;;5177168;28;20195;-65
2022/03/08 02:08:35;;;;;;;2.53;1.90;;;17.00;56.50;;;;;;5171178;28;20199;-65
2022/03/08 02:11:28;;;;;;;2.50;2.10;;;16.90;56.40;;;;;;5183849;28;20443;-65
2022/03/08 02:14:20;;;;;;;1.70;1.60;;;16.90;56.40;;;;;;5175601;28;20214;-65
2022/03/08 02:17:12;;;;;;;2.67;2.03;;;16.90;56.40;;;;;;5181349;28;20205;-65
2022/03/08 02:20:07;;;;;;;2.27;1.97;;;16.90;56.40;;;;;;5184080;28;20581;-65
2022/03/08 02:23:01;;;;;;;2.33;1.80;;;17.00;56.40;;;;;;5185958;28;20332;-65
2022/03/08 02:25:53;;;;;;;1.97;1.70;;;17.00;56.40;;;;;;5187662;28;20195;-65
2022/03/08 02:28:45;;;;;;;1.47;1.30;;;17.00;56.40;;;;;;5194162;28;20196;-65
2022/03/08 02:31:38;;;;;;;1.90;1.57;;;17.00;56.30;;;;;;5168635;28;20338;-65
2022/03/08 02:34:30;;;;;;;1.80;1.70;;;17.00;56.40;;;;;;5187496;28;20214;-65
2022/03/08 02:37:22;;;;;;;1.97;1.53;;;17.00;56.30;;;;;;5188196;28;20205;-65
2022/03/08 02:40:18;;;;;;;1.63;1.40;;;17.00;56.30;;;;;;5196374;28;20277;-65
2022/03/08 02:43:11;;;;;;;1.70;1.60;;;16.90;56.40;;;;;;5172304;28;20214;-67
2022/03/08 02:46:03;;;;;;;1.67;1.37;;;16.90;56.30;;;;;;5185069;28;20204;-65
2022/03/08 02:48:56;;;;;;;1.70;1.53;;;17.00;56.40;;;;;;5187005;28;20198;-64
2022/03/08 02:51:48;;;;;;;1.50;1.40;;;17.00;56.30;;;;;;5187143;28;20577;-65
2022/03/08 02:54:40;;;;;;;1.87;1.53;;;16.90;56.30;;;;;;5176724;28;20268;-65
2022/03/08 02:57:34;;;;;;;1.30;1.20;;;17.00;56.30;;;;;;5185918;28;20198;-65
2022/03/08 03:00:28;;;;;;;1.70;1.57;;;16.90;56.20;;;;;;5187619;28;20201;-65
2022/03/08 03:03:20;;;;;;;1.87;1.63;;;16.90;56.30;;;;;;5187111;28;20597;-64
2022/03/08 03:06:12;;;;;;;1.40;1.30;;;17.00;56.30;;;;;;5187418;28;20232;-65
2022/03/08 03:09:04;;;;;;;1.63;1.40;;;16.90;56.20;;;;;;5187308;28;20202;-64
2022/03/08 03:11:57;;;;;;;1.77;1.33;;;17.00;56.30;;;;;;5188292;28;20198;-63
2022/03/08 03:14:50;;;;;;;1.50;1.40;;;17.00;56.20;;;;;;5187230;28;20191;-65
2022/03/08 03:17:43;;;;;;;1.93;1.37;;;17.00;56.30;;;;;;5187347;28;20202;-66
2022/03/08 03:20:35;;;;;;;2.50;1.60;;;16.90;56.20;;;;;;5187061;28;20191;-65
2022/03/08 03:23:27;;;;;;;1.63;1.20;;;17.00;56.30;;;;;;5185235;28;20214;-65
2022/03/08 03:26:20;;;;;;;1.50;1.40;;;16.90;56.10;;;;;;5180173;28;20684;-65
2022/03/08 03:29:12;;;;;;;1.87;1.50;;;16.90;56.20;;;;;;5187426;28;20201;-65
2022/03/08 03:32:06;;;;;;;1.80;1.40;;;17.00;56.10;;;;;;5192946;28;20273;-66
2022/03/08 03:34:58;;;;;;;1.90;1.60;;;16.90;56.10;;;;;;5186673;28;20206;-66
2022/03/08 03:37:51;;;;;;;1.67;1.30;;;17.00;56.20;;;;;;5187328;28;20221;-65
2022/03/08 03:40:43;;;;;;;1.43;1.20;;;16.90;56.10;;;;;;5187163;28;20199;-65
2022/03/08 03:43:35;;;;;;;1.43;1.33;;;16.90;56.20;;;;;;5186913;28;20214;-66
2022/03/08 03:46:27;;;;;;;1.33;1.23;;;16.90;56.10;;;;;;5187188;28;20199;-65
2022/03/08 03:49:20;;;;;;;1.53;1.37;;;16.90;56.10;;;;;;5187211;28;20210;-65
2022/03/08 03:52:12;;;;;;;1.77;1.50;;;16.90;56.10;;;;;;5187106;28;20206;-65
2022/03/08 03:55:06;;;;;;;1.67;1.43;;;17.00;56.10;;;;;;5186774;28;20256;-65
2022/03/08 03:57:58;;;;;;;1.57;1.20;;;16.90;56.10;;;;;;5186505;28;20198;-65
2022/03/08 04:00:50;;;;;;;2.20;1.30;;;17.00;56.10;;;;;;5186330;28;20600;-65
2022/03/08 04:03:42;;;;;;;1.50;1.20;;;16.90;56.00;;;;;;5186255;28;20302;-65
2022/03/08 04:06:36;;;;;;;1.83;1.60;;;16.90;56.10;;;;;;5186182;28;20199;-65
2022/03/08 04:09:29;;;;;;;1.87;1.27;;;17.00;56.10;;;;;;5186159;28;20197;-65
2022/03/08 04:12:21;;;;;;;1.43;1.33;;;16.90;56.00;;;;;;5185806;28;20282;-65
2022/03/08 04:15:13;;;;;;;1.60;1.50;;;17.00;56.10;;;;;;5183445;28;20198;-65
2022/03/08 04:18:05;;;;;;;1.30;1.20;;;16.90;56.00;;;;;;5185549;28;20324;-65
2022/03/08 04:20:57;;;;;;;1.90;1.20;;;16.90;56.10;;;;;;5187077;28;20576;-65
2022/03/08 04:23:51;;;;;;;1.97;1.30;;;16.90;56.10;;;;;;5186753;28;20219;-65
2022/03/08 04:26:43;;;;;;;1.30;1.20;;;16.90;56.10;;;;;;5185898;28;20198;-65
2022/03/08 04:29:35;;;;;;;1.90;1.23;;;17.00;56.10;;;;;;5185907;28;20202;-65
2022/03/08 04:32:27;;;;;;;1.70;1.30;;;16.90;56.00;;;;;;5185163;28;20281;-65
2022/03/08 04:35:20;;;;;;;2.13;1.50;;;16.90;56.30;;;;;;5187724;28;20250;-65
2022/03/08 04:38:12;;;;;;;1.77;1.50;;;17.00;56.10;;;;;;5187360;28;20705;-66
2022/03/08 04:41:06;;;;;;;2.00;1.53;;;16.90;56.00;;;;;;5184296;28;20191;-65
2022/03/08 04:43:58;;;;;;;1.47;1.27;;;16.90;55.90;;;;;;5204287;28;20224;-64
2022/03/08 04:46:50;;;;;;;1.47;1.20;;;17.00;56.60;;;;;;5206783;28;20662;-65
2022/03/08 04:49:43;;;;;;;1.50;1.23;;;17.00;56.00;;;;;;5202426;28;20573;-66
2022/03/08 04:52:35;;;;;;;1.33;1.20;;;17.00;56.00;;;;;;5175437;28;20214;-65
2022/03/08 04:55:27;;;;;;;1.47;1.30;;;17.00;56.00;;;;;;5197122;28;20588;-66
2022/03/08 04:58:20;;;;;;;1.30;1.20;;;17.00;56.00;;;;;;5200990;28;20308;-66
2022/03/08 05:01:14;;;;;;;2.07;1.40;;;17.00;55.90;;;;;;5185997;28;20277;-65
2022/03/08 05:04:06;;;;;;;1.50;1.40;;;17.00;55.90;;;;;;5184299;28;20222;-65
2022/03/08 05:06:58;;;;;;;1.80;1.33;;;17.00;55.80;;;;;;5183231;28;20665;-64
2022/03/08 05:09:51;;;;;;;1.20;1.10;;;17.00;55.80;;;;;;5185057;28;20248;-65
2022/03/08 05:12:43;;;;;;;1.50;1.30;;;17.00;55.80;;;;;;5183809;28;20221;-64
2022/03/08 05:15:37;;;;;;;1.37;1.10;;;17.00;55.70;;;;;;5184789;28;20212;-65
2022/03/08 05:18:29;;;;;;;1.30;1.20;;;17.00;55.70;;;;;;5179775;28;20662;-64
2022/03/08 05:21:21;;;;;;;1.60;1.43;;;17.00;55.70;;;;;;5185188;28;20195;-64
2022/03/08 05:24:13;;;;;;;1.20;1.00;;;17.00;55.70;;;;;;5185517;28;20593;-65
2022/03/08 05:27:07;;;;;;;1.70;1.50;;;17.00;55.80;;;;;;5186538;28;20198;-66
2022/03/08 05:29:59;;;;;;;1.40;1.30;;;17.00;55.80;;;;;;5184981;28;20199;-64
2022/03/08 05:32:53;;;;;;;1.40;1.30;;;17.00;55.80;;;;;;5182656;28;20299;-64
2022/03/08 05:35:45;;;;;;;1.47;1.30;;;17.00;55.80;;;;;;5184689;28;20256;-65
2022/03/08 05:38:37;;;;;;;1.43;1.20;;;17.00;55.80;;;;;;5182557;28;20274;-64
2022/03/08 05:41:29;;;;;;;1.40;1.30;;;17.10;55.80;;;;;;5183740;28;20277;-65
2022/03/08 05:44:21;;;;;;;1.60;1.20;;;17.00;55.70;;;;;;5185066;28;20226;-64
2022/03/08 05:47:14;;;;;;;1.73;1.50;;;17.00;55.70;;;;;;5183785;28;20201;-64
2022/03/08 05:50:09;;;;;;;1.77;1.40;;;17.10;56.30;;;;;;5182889;28;20203;-64
2022/03/08 05:53:01;;;;;;;2.03;1.43;;;17.00;55.60;;;;;;5181130;28;20300;-65
2022/03/08 05:55:53;;;;;;;1.27;1.17;;;17.00;55.60;;;;;;5195524;23;20226;-65
2022/03/08 05:58:45;;;;;;;1.37;1.23;;;17.00;55.50;;;;;;5192898;28;20199;-65
2022/03/08 06:01:37;;;;;;;1.23;1.13;;;17.00;55.50;;;;;;5190669;28;20195;-64
2022/03/08 06:04:29;;;;;;;1.43;1.07;;;17.00;55.60;;;;;;5200950;28;20229;-65
2022/03/08 06:07:23;;;;;;;1.57;1.33;;;17.10;55.70;;;;;;5174993;28;20202;-64
2022/03/08 06:10:16;;;;;;;1.50;1.10;;;17.00;55.60;;;;;;5180246;28;20198;-64
2022/03/08 06:13:08;;;;;;;1.60;1.40;;;17.00;55.60;;;;;;5183467;28;20194;-64
2022/03/08 06:16:00;;;;;;;1.53;1.03;;;17.00;55.50;;;;;;5181943;28;20215;-64
2022/03/08 06:18:55;;;;;;;1.60;1.40;;;17.00;55.70;;;;;;5182831;28;20205;-64
2022/03/08 06:21:47;;;;;;;1.40;1.20;;;17.00;55.70;;;;;;5184151;28;20677;-65
2022/03/08 06:24:40;;;;;;;1.57;1.30;;;17.10;55.60;;;;;;5172485;28;20211;-64
2022/03/08 06:27:32;;;;;;;1.37;1.20;;;17.10;55.50;;;;;;5183613;28;20197;-65
2022/03/08 06:30:24;;;;;;;2.27;1.57;;;17.10;55.60;;;;;;5183977;28;20205;-65
2022/03/08 06:33:16;;;;;;;1.97;1.33;;;17.10;55.50;;;;;;5183440;28;20688;-64
2022/03/08 06:36:09;;;;;;;1.27;1.10;;;17.00;55.40;;;;;;5184129;28;20214;-65
2022/03/08 06:39:01;;;;;;;1.20;1.10;;;17.10;55.50;;;;;;5185545;28;20577;-64
2022/03/08 06:41:54;;;;;;;1.17;1.07;;;17.00;55.60;;;;;;5183195;28;20271;-65
2022/03/08 06:44:46;;;;;;;3.07;0.90;;;17.00;55.70;;;;;;5187713;28;20601;-65
2022/03/08 06:47:39;;;;;;;1.37;1.10;;;17.00;55.60;;;;;;5184317;28;20194;-65
2022/03/08 06:50:31;;;;;;;1.80;1.30;;;17.10;55.60;;;;;;5183933;28;20202;-67
2022/03/08 06:53:23;;;;;;;1.50;1.10;;;17.10;56.10;;;;;;5176800;28;20205;-67
2022/03/08 06:56:16;;;;;;;1.63;1.33;;;17.10;56.30;;;;;;5175043;28;20215;-67
2022/03/08 06:59:10;;;;;;;1.30;1.10;;;17.10;56.40;;;;;;5174287;28;20199;-67
2022/03/08 07:02:02;;;;;;;1.30;1.17;;;17.10;56.40;;;;;;5171511;28;20238;-67
2022/03/08 07:04:54;;;;;;;1.57;1.30;;;17.10;56.40;;;;;;5174886;28;20691;-67
2022/03/08 07:07:46;;;;;;;1.40;1.30;;;17.10;56.30;;;;;;5174412;28;20214;-67
2022/03/08 07:10:38;;;;;;;1.33;1.20;;;17.10;56.30;;;;;;5177283;28;20274;-67
2022/03/08 07:13:30;;;;;;;1.73;1.20;;;17.20;56.30;;;;;;5177642;28;20213;-67
2022/03/08 07:16:24;;;;;;;1.30;1.20;;;17.20;56.30;;;;;;5177353;28;20246;-67
2022/03/08 07:19:17;;;;;;;1.27;1.10;;;17.20;56.30;;;;;;5178755;28;20563;-66
2022/03/08 07:22:09;;;;;;;1.27;1.00;;;17.20;56.20;;;;;;5176873;28;20202;-67
2022/03/08 07:25:01;;;;;;;1.00;0.90;;;17.20;56.40;;;;;;5177094;28;20594;-67
2022/03/08 07:27:53;;;;;;;1.10;0.90;;;17.20;56.40;;;;;;5182384;28;20261;-67
2022/03/08 07:30:45;;;;;;;1.20;1.00;;;17.20;56.40;;;;;;5184699;28;20713;-65
2022/03/08 07:33:40;;;;;;;1.60;1.10;;;17.20;56.30;;;;;;5186669;28;20329;-65
2022/03/08 07:36:33;;;;;;;0.97;0.93;;;17.20;55.70;;;;;;5187483;28;20214;-65
2022/03/08 07:39:25;;;;;;;1.43;1.17;;;17.20;55.60;;;;;;5187392;28;20685;-64
2022/03/08 07:42:18;;;;;;;2.03;1.23;;;17.10;55.60;;;;;;5186414;28;20281;-65
2022/03/08 07:45:11;;;;;;;1.00;1.00;;;17.10;55.80;;;;;;5186930;28;20227;-65
2022/03/08 07:48:04;;;;;;;1.17;1.07;;;17.10;55.90;;;;;;5186516;28;20281;-65
2022/03/08 07:50:58;;;;;;;1.27;1.03;;;17.10;56.00;;;;;;5187042;28;20195;-65
2022/03/08 07:53:50;;;;;;;1.30;1.07;;;17.10;56.00;;;;;;5186995;28;20201;-65
2022/03/08 07:56:42;;;;;;;1.20;1.10;;;17.00;56.00;;;;;;5186745;28;20222;-65
2022/03/08 07:59:34;;;;;;;0.80;0.80;;;17.10;56.20;;;;;;5185958;28;20199;-65
2022/03/08 08:02:27;;;;;;;1.20;1.00;;;17.00;56.20;;;;;;5180675;28;20714;-65
2022/03/08 08:05:20;;;;;;;1.33;1.07;;;17.10;56.30;;;;;;5186304;28;20225;-65
2022/03/08 08:08:14;;;;;;;1.40;0.93;;;17.00;56.30;;;;;;5186573;28;20221;-64
2022/03/08 08:11:06;;;;;;;1.67;1.13;;;17.00;56.30;;;;;;5187876;28;20636;-64
2022/03/08 08:13:58;;;;;;;1.53;1.20;;;17.00;56.30;;;;;;5185261;28;20222;-64
2022/03/08 08:16:50;;;;;;;1.60;1.00;;;17.00;56.40;;;;;;5186475;28;20694;-64
2022/03/08 08:19:42;;;;;;;1.30;1.10;;;17.00;56.40;;;;;;5185727;28;20206;-64
2022/03/08 08:22:34;;;;;;;1.60;0.97;;;17.10;56.50;;;;;;5173680;28;20198;-65
2022/03/08 08:25:28;;;;;;;1.17;1.07;;;17.00;56.60;;;;;;5166507;28;20245;-64
2022/03/08 08:28:20;;;;;;;0.80;0.70;;;17.00;56.60;;;;;;5165484;28;20271;-65
2022/03/08 08:31:12;;;;;;;1.03;0.93;;;17.00;56.60;;;;;;5164968;28;20651;-65
2022/03/08 08:34:04;;;;;;;1.90;1.00;;;17.00;56.60;;;;;;5165804;28;20278;-64
2022/03/08 08:36:56;;;;;;;1.30;1.10;;;17.10;56.70;;;;;;5166028;28;20199;-64
2022/03/08 08:39:49;;;;;;;1.10;1.00;;;17.00;56.70;;;;;;5191838;28;20577;-64
2022/03/08 08:42:42;;;;;;;1.03;0.93;;;17.00;56.70;;;;;;5186095;28;20682;-64
2022/03/08 08:45:36;;;;;;;1.10;1.00;;;17.10;57.30;;;;;;5204724;28;20228;-64
2022/03/08 08:48:28;;;;;;;1.50;0.80;;;17.00;56.80;;;;;;5206684;28;20271;-64
2022/03/08 08:51:20;;;;;;;1.57;1.00;;;17.10;56.90;;;;;;5186843;28;20190;-64
2022/03/08 08:54:12;;;;;;;1.00;0.90;;;17.00;56.90;;;;;;5178655;28;20201;-64
2022/03/08 08:57:05;;;;;;;2.00;1.10;;;17.00;56.90;;;;;;5185945;28;20234;-64
2022/03/08 08:59:58;;;;;;;2.17;0.90;;;17.10;56.90;;;;;;5175503;28;20663;-64
2022/03/08 09:02:52;;;;;;;1.10;0.77;;;17.10;57.00;;;;;;5165345;28;20195;-66
2022/03/08 09:05:44;;;;;;;1.00;0.80;;;17.10;57.00;;;;;;5184137;28;20292;-66
2022/03/08 09:08:36;;;;;;;3.03;0.90;;;17.10;57.20;;;;;;5184775;28;20256;-65
2022/03/08 09:11:28;;;;;;;1.20;0.60;;;17.10;57.30;;;;;;5168488;28;20203;-66
2022/03/08 09:14:20;;;;;;;2.10;0.90;;;17.10;57.30;;;;;;5164914;28;20674;-66
2022/03/08 09:17:14;;;;;;;1.53;0.70;;;17.10;57.30;;;;;;5184292;28;20273;-66
2022/03/08 09:20:08;;;;;;;1.63;1.03;;;17.20;57.40;;;;;;5165638;28;20199;-67
2022/03/08 09:23:00;;;;;;;1.10;0.67;;;17.20;57.40;;;;;;5184408;28;20268;-67
2022/03/08 09:25:53;;;;;;;1.20;1.00;;;17.20;57.40;;;;;;5183002;28;20252;-67
2022/03/08 09:28:45;;;;;;;1.13;0.90;;;17.20;57.40;;;;;;5185358;28;20199;-67
2022/03/08 09:31:37;;;;;;;1.30;0.80;;;17.20;57.40;;;;;;5184862;28;20658;-66
2022/03/08 09:34:30;;;;;;;0.90;0.77;;;17.20;57.40;;;;;;5184925;28;20260;-65
2022/03/08 09:37:22;;;;;;;0.97;0.70;;;17.20;57.40;;;;;;5184836;28;20194;-64
2022/03/08 09:40:14;;;;;;;1.23;0.90;;;17.20;57.10;;;;;;5184905;28;20788;-64
2022/03/08 09:43:07;;;;;;;0.90;0.70;;;17.20;57.00;;;;;;5185470;28;20195;-64
2022/03/08 09:45:59;;;;;;;1.03;0.70;;;17.20;57.60;;;;;;5184783;28;20301;-64
2022/03/08 09:48:51;;;;;;;1.40;0.90;;;17.20;57.10;;;;;;5184488;28;20592;-65
2022/03/08 09:51:45;;;;;;;0.90;0.70;;;17.10;57.00;;;;;;5164683;28;20274;-64
2022/03/08 09:54:37;;;;;;;1.17;0.70;;;17.20;57.20;;;;;;5164172;28;20210;-65
2022/03/08 09:57:29;;;;;;;0.70;0.57;;;17.10;57.10;;;;;;5165168;28;20191;-65
2022/03/08 10:00:23;;;;;;;0.90;0.60;;;17.10;57.20;;;;;;5164492;28;20203;-64
2022/03/08 10:03:15;;;;;;;0.73;0.60;;;17.10;57.30;;;;;;5164926;28;20781;-64
2022/03/08 10:06:09;;;;;;;0.80;0.70;;;17.10;57.30;;;;;;5164890;28;20293;-64
2022/03/08 10:09:13;;;;;;;0.90;0.50;;;17.10;57.30;;;;;;5181867;28;20205;-64
2022/03/08 10:12:15;;;;;;;0.73;0.63;;;17.10;57.40;;;;;;5183967;28;20604;-64
2022/03/08 10:15:19;;;;;;;0.73;0.70;;;17.10;57.50;;;;;;5182249;28;20632;-65
2022/03/08 10:18:11;;;;;;;1.40;0.70;;;17.00;57.50;;;;;;5176949;28;20613;-64
2022/03/08 10:21:04;;;;;;;1.07;0.87;;;17.00;57.50;;;;;;5184318;28;20330;-65
2022/03/08 10:23:57;;;;;;;0.70;0.60;;;17.00;57.50;;;;;;5184430;28;20669;-65
2022/03/08 10:26:52;;;;;;;1.53;0.90;;;17.00;57.50;;;;;;5184588;28;20319;-64
2022/03/08 10:29:48;;;;;;;1.00;0.80;;;17.00;57.50;;;;;;5184854;28;20561;-65
2022/03/08 10:32:41;;;;;;;0.93;0.70;;;17.10;57.60;;;;;;5184586;28;20191;-65
2022/03/08 10:35:37;;;;;;;1.37;0.60;;;17.00;57.60;;;;;;5174989;28;20226;-65
2022/03/08 10:38:29;;;;;;;0.50;0.50;;;17.00;57.60;;;;;;5164849;28;20199;-65
2022/03/08 10:41:21;;;;;;;0.53;0.50;;;17.10;57.70;;;;;;5164108;28;20629;-65
2022/03/08 10:44:15;;;;;;;0.70;0.63;;;17.00;57.90;;;;;;5180142;28;20273;-64
2022/03/08 10:47:10;;;;;;;0.40;0.40;;;17.00;57.90;;;;;;5189306;28;20214;-65
2022/03/08 10:50:03;;;;;;;0.80;0.50;;;17.10;57.90;;;;;;5188304;28;20228;-64
2022/03/08 10:52:56;;;;;;;1.03;0.73;;;17.10;57.90;;;;;;5188055;28;20211;-65
2022/03/08 10:55:50;;;;;;;0.80;0.70;;;17.10;57.90;;;;;;5187406;28;20240;-65
2022/03/08 10:58:49;;;;;;;1.10;0.73;;;17.10;57.90;;;;;;5188958;28;20195;-65
2022/03/08 11:01:43;;;;;;;0.67;0.67;;;17.10;57.90;;;;;;5187304;28;20201;-65
2022/03/08 11:04:35;;;;;;;1.90;0.60;;;17.10;57.90;;;;;;5186744;28;20205;-64
2022/03/08 11:07:27;;;;;;;0.60;0.50;;;17.10;57.90;;;;;;5187870;28;20217;-64
2022/03/08 11:10:20;;;;;;;0.70;0.70;;;17.10;57.90;;;;;;5188112;28;20329;-64
2022/03/08 11:13:14;;;;;;;1.03;0.60;;;17.10;57.80;;;;;;5186831;28;20195;-64
2022/03/08 11:16:07;;;;;;;0.60;0.50;;;17.10;57.90;;;;;;5186542;28;20210;-64
2022/03/08 11:19:01;;;;;;;0.43;0.43;;;17.10;58.00;;;;;;5185859;28;20199;-64
2022/03/08 11:21:56;;;;;;;1.00;0.77;;;17.10;57.90;;;;;;5187672;28;20574;-65
2022/03/08 11:24:48;;;;;;;0.60;0.47;;;17.10;57.90;;;;;;5187565;28;20218;-64
2022/03/08 11:27:41;;;;;;;0.70;0.57;;;17.20;58.00;;;;;;5187788;28;20214;-64
2022/03/08 11:30:35;;;;;;;1.00;0.60;;;17.10;57.90;;;;;;5188120;28;20281;-65
2022/03/08 11:33:39;;;;;;;0.70;0.60;;;17.10;58.00;;;;;;5171380;28;20190;-64
2022/03/08 11:36:36;;;;;;;0.33;0.33;;;17.10;58.00;;;;;;5167011;28;20294;-64
2022/03/08 11:39:29;;;;;;;1.47;0.60;;;17.20;58.00;;;;;;5167290;28;20195;-64
2022/03/08 11:42:29;;;;;;;1.03;0.60;;;17.10;58.00;;;;;;5173266;28;20273;-65
2022/03/08 11:45:24;;;;;;;0.47;0.47;;;17.10;58.00;;;;;;5170631;28;20353;-64
2022/03/08 11:48:21;;;;;;;0.77;0.50;;;17.10;57.90;;;;;;5167703;28;20682;-64
2022/03/08 11:51:13;;;;;;;0.70;0.53;;;17.10;58.00;;;;;;5183917;28;20201;-64
2022/03/08 11:54:08;;;;;;;0.70;0.50;;;17.10;58.00;;;;;;5185853;28;20658;-64
2022/03/08 11:57:01;;;;;;;0.50;0.33;;;17.10;58.00;;;;;;5233230;23;20232;-71
2022/03/08 12:00:17;;;;;;;0.50;0.43;;;17.10;58.00;;;;;;5226097;28;20678;-71
2022/03/08 12:03:12;;;;;;;0.70;0.50;;;17.10;58.00;;;;;;5219160;28;20197;-71
2022/03/08 12:06:06;;;;;;;0.70;0.50;;;17.10;58.00;;;;;;5221296;28;20239;-71
2022/03/08 12:09:10;;;;;;;0.40;0.40;;;17.10;57.90;;;;;;5225024;28;20224;-71
2022/03/08 12:12:03;;;;;;;0.73;0.70;;;17.10;58.00;;;;;;5225832;28;20761;-71
2022/03/08 12:15:03;;;;;;;1.13;0.50;;;17.20;58.10;;;;;;5226229;28;20263;-70
2022/03/08 12:18:33;;;;;;;0.50;0.50;;;17.10;58.10;;;;;;5227303;28;20676;-70
2022/03/08 12:21:33;;;;;;;0.83;0.60;;;17.10;58.00;;;;;;5142500;28;20354;-71
2022/03/08 12:24:27;;;;;;;0.47;0.43;;;17.20;58.10;;;;;;5207314;28;20231;-71
2022/03/08 12:27:21;;;;;;;1.27;0.70;;;17.10;58.00;;;;;;5225903;28;20221;-71
2022/03/08 12:30:14;;;;;;;1.00;0.50;;;17.10;58.00;;;;;;5227103;28;20221;-71
2022/03/08 12:33:06;;;;;;;0.43;0.40;;;17.10;58.10;;;;;;5225636;28;20315;-71
2022/03/08 12:35:58;;;;;;;0.30;0.30;;;17.10;58.10;;;;;;5226977;28;20232;-69
2022/03/08 12:38:50;;;;;;;0.50;0.50;;;17.20;58.70;;;;;;5232546;28;20279;-69
2022/03/08 12:41:44;;;;;;;0.70;0.50;;;17.10;58.20;;;;;;5223975;28;20247;-69
2022/03/08 12:44:36;;;;;;;0.57;0.40;;;17.10;58.20;;;;;;5222763;28;20231;-69
2022/03/08 12:47:31;;;;;;;0.50;0.50;;;17.10;58.20;;;;;;5223234;28;20296;-69
2022/03/08 12:50:28;;;;;;;2.83;0.40;;;17.10;58.30;;;;;;5222340;28;20282;-70
2022/03/08 12:53:24;;;;;;;1.40;0.50;;;17.10;58.40;;;;;;5221707;28;20895;-71
2022/03/08 12:56:18;;;;;;;0.73;0.53;;;17.10;58.50;;;;;;5215592;28;20272;-71
2022/03/08 12:59:12;;;;;;;0.37;0.37;;;17.10;58.60;;;;;;5223766;28;20342;-70
2022/03/08 13:02:12;;;;;;;0.53;0.50;;;17.20;58.80;;;;;;5222948;28;20743;-70
2022/03/08 13:05:06;;;;;;;0.80;0.50;;;17.10;58.80;;;;;;5202920;28;20194;-70
2022/03/08 13:07:59;;;;;;;0.43;0.43;;;17.20;58.90;;;;;;5205184;28;20224;-71
2022/03/08 13:10:54;;;;;;;0.63;0.50;;;17.10;58.90;;;;;;5209707;28;20304;-66
2022/03/08 13:13:46;;;;;;;0.50;0.50;;;17.10;58.90;;;;;;5225223;28;20224;-64
2022/03/08 13:16:40;;;;;;;0.57;0.40;;;17.10;58.90;;;;;;5224952;28;20193;-62
2022/03/08 13:19:37;;;;;;;0.20;0.20;;;17.20;58.90;;;;;;5225875;28;20692;-63
2022/03/08 13:22:29;;;;;;;0.70;0.40;;;17.20;58.90;;;;;;5225002;28;20756;-66
2022/03/08 13:25:22;;;;;;;0.50;0.40;;;17.20;58.80;;;;;;5224975;28;20299;-67
2022/03/08 13:28:16;;;;;;;0.40;0.30;;;17.20;58.80;;;;;;5225523;28;20259;-66
2022/03/08 13:31:09;;;;;;;0.43;0.40;;;17.20;58.70;;;;;;5224477;28;20296;-67
2022/03/08 13:34:03;;;;;;;1.03;0.50;;;17.20;58.60;;;;;;5221038;28;20197;-71
2022/03/08 13:36:56;;;;;;;0.50;0.50;;;17.20;58.60;;;;;;5224536;28;20197;-69
2022/03/08 13:39:48;;;;;;;0.50;0.23;;;17.20;58.60;;;;;;5223379;28;20314;-69
2022/03/08 13:42:41;;;;;;;0.60;0.50;;;17.20;58.70;;;;;;5224234;28;20262;-73
2022/03/08 13:45:34;;;;;;;0.40;0.30;;;17.20;58.70;;;;;;5224823;28;20201;-71
2022/03/08 13:48:29;;;;;;;0.27;0.20;;;17.30;58.80;;;;;;5224670;28;20628;-72
2022/03/08 13:51:28;;;;;;;0.57;0.57;;;17.20;58.70;;;;;;5225279;28;20258;-71
2022/03/08 13:54:21;;;;;;;0.97;0.50;;;17.30;58.80;;;;;;5224477;28;20268;-69
2022/03/08 13:57:13;;;;;;;0.90;0.40;;;17.30;58.80;;;;;;5224961;28;20201;-71
2022/03/08 14:00:07;;;;;;;1.33;0.50;;;17.20;58.80;;;;;;5224751;28;20653;-72
2022/03/08 14:03:00;;;;;;;0.40;0.37;;;17.30;58.80;;;;;;5224615;28;20280;-72
2022/03/08 14:05:58;;;;;;;0.70;0.40;;;17.30;58.80;;;;;;5224423;28;20197;-72
2022/03/08 14:08:55;;;;;;;0.63;0.50;;;17.30;58.80;;;;;;5224166;28;20216;-73
2022/03/08 14:11:54;;;;;;;0.57;0.30;;;17.30;58.90;;;;;;5223617;28;20340;-72
2022/03/08 14:15:02;;;;;;;0.23;0.20;;;17.30;59.00;;;;;;5223566;28;20320;-72
2022/03/08 14:18:10;;;;;;;1.27;0.20;;;17.30;59.00;;;;;;5222811;28;20659;-72
2022/03/08 14:21:03;;;;;;;0.30;0.30;;;17.30;59.00;;;;;;5222340;28;20216;-71
2022/03/08 14:23:57;;;;;;;0.47;0.30;;;17.30;59.00;;;;;;5224067;28;20205;-72
2022/03/08 14:27:00;;;;;;;0.37;0.30;;;17.30;59.00;;;;;;5223737;28;20266;-72
2022/03/08 14:30:01;;;;;;;0.30;0.30;;;17.30;59.10;;;;;;5223709;28;20219;-71
2022/03/08 14:33:03;;;;;;;0.70;0.43;;;17.30;59.10;;;;;;5221657;28;20200;-70
2022/03/08 14:35:55;;;;;;;0.50;0.33;;;17.30;59.10;;;;;;5225027;28;20701;-70
2022/03/08 14:38:50;;;;;;;1.00;0.47;;;17.30;59.10;;;;;;5204428;28;20232;-72
2022/03/08 14:41:53;;;;;;;1.33;0.60;;;17.30;59.10;;;;;;5217096;28;20282;-70
2022/03/08 14:44:47;;;;;;;0.33;0.20;;;17.30;59.20;;;;;;5223651;28;20280;-72
2022/03/08 14:47:40;;;;;;;0.67;0.37;;;17.30;59.20;;;;;;5221816;28;20279;-72
2022/03/08 14:50:32;;;;;;;0.40;0.27;;;17.30;59.20;;;;;;5223985;28;20355;-72
2022/03/08 14:53:25;;;;;;;0.67;0.40;;;17.30;59.20;;;;;;5203665;28;20681;-71
2022/03/08 14:56:18;;;;;;;0.77;0.40;;;17.40;59.30;;;;;;5203130;28;20784;-72
2022/03/08 14:59:12;;;;;;;0.50;0.27;;;17.40;59.30;;;;;;5204317;28;20609;-72
2022/03/08 15:02:05;;;;;;;0.47;0.30;;;17.40;59.30;;;;;;5221853;28;20201;-72
2022/03/08 15:04:58;;;;;;;0.70;0.20;;;17.30;59.20;;;;;;5222784;28;20773;-72